Pittsfield, Pennsylvania
Current Conditions -  °F | °C
As of 11:35 AM on Tuesday 27 Jan 2015 (Local Time) from KJHW Reporting Station
Overcast Overcast  
Wind Chill:   Ceiling: 2800
Heat Index: 16°   Visibility: 3mi
Dew Point: 10°   Wind: 10mph
Humidity: 79%   Direction: 350°N
Pressure: 29.89"   Gusts: NA
Location:  41.84°N, 79.38°W
Report Text: KJHW 271635Z 35009KT 3SM SCT011 SCT020 OVC028 M09/M12 A2989 RMK AO1
Loading
Personal Weather Stations






























Interactive Weather Map New forecast layout! Learn more

10-Day Weather Forecast

Advertisements
Track Severe Weather on mobile